sensor_id;sensor_type;location;lat;lon;timestamp;P1;durP1;ratioP1;P2;durP2;ratioP2
61460;SDS011;47325;50.506;4.472;2023-06-10T00:04:57;6.30;;;4.10;;
61460;SDS011;47325;50.506;4.472;2023-06-10T00:10:43;5.10;;;4.40;;
61460;SDS011;47325;50.506;4.472;2023-06-10T00:16:28;4.60;;;4.20;;
61460;SDS011;47325;50.506;4.472;2023-06-10T00:22:13;4.60;;;4.10;;
61460;SDS011;47325;50.506;4.472;2023-06-10T00:27:58;4.60;;;4.10;;
61460;SDS011;47325;50.506;4.472;2023-06-10T00:33:44;4.70;;;4.00;;
61460;SDS011;47325;50.506;4.472;2023-06-10T00:39:29;6.60;;;4.10;;
61460;SDS011;47325;50.506;4.472;2023-06-10T00:45:14;4.20;;;3.80;;
61460;SDS011;47325;50.506;4.472;2023-06-10T00:50:59;5.00;;;3.90;;
61460;SDS011;47325;50.506;4.472;2023-06-10T00:56:44;5.50;;;4.30;;
61460;SDS011;47325;50.506;4.472;2023-06-10T01:02:28;5.00;;;4.20;;
61460;SDS011;47325;50.506;4.472;2023-06-10T01:08:18;4.30;;;3.80;;
61460;SDS011;47325;50.506;4.472;2023-06-10T01:14:04;4.60;;;3.90;;
61460;SDS011;47325;50.506;4.472;2023-06-10T01:19:56;4.30;;;3.90;;
61460;SDS011;47325;50.506;4.472;2023-06-10T01:25:43;4.80;;;4.10;;
61460;SDS011;47325;50.506;4.472;2023-06-10T01:31:33;4.90;;;3.90;;
61460;SDS011;47325;50.506;4.472;2023-06-10T01:37:22;4.30;;;3.90;;
61460;SDS011;47325;50.506;4.472;2023-06-10T01:43:08;4.50;;;4.10;;
61460;SDS011;47325;50.506;4.472;2023-06-10T01:48:53;4.20;;;3.80;;
61460;SDS011;47325;50.506;4.472;2023-06-10T01:54:39;6.00;;;4.20;;
61460;SDS011;47325;50.506;4.472;2023-06-10T02:00:24;4.70;;;4.10;;
61460;SDS011;47325;50.506;4.472;2023-06-10T02:06:09;4.50;;;4.10;;
61460;SDS011;47325;50.506;4.472;2023-06-10T02:11:54;4.30;;;3.90;;
61460;SDS011;47325;50.506;4.472;2023-06-10T02:17:39;4.40;;;4.00;;
61460;SDS011;47325;50.506;4.472;2023-06-10T02:23:24;4.50;;;4.10;;
61460;SDS011;47325;50.506;4.472;2023-06-10T02:29:09;4.40;;;4.00;;
61460;SDS011;47325;50.506;4.472;2023-06-10T02:34:54;5.70;;;4.60;;
61460;SDS011;47325;50.506;4.472;2023-06-10T02:40:40;4.90;;;4.40;;
61460;SDS011;47325;50.506;4.472;2023-06-10T02:46:25;4.90;;;4.30;;
61460;SDS011;47325;50.506;4.472;2023-06-10T02:52:10;4.90;;;4.40;;
61460;SDS011;47325;50.506;4.472;2023-06-10T02:57:55;4.90;;;4.40;;
61460;SDS011;47325;50.506;4.472;2023-06-10T03:03:40;5.60;;;4.40;;
61460;SDS011;47325;50.506;4.472;2023-06-10T03:09:27;4.90;;;4.40;;
61460;SDS011;47325;50.506;4.472;2023-06-10T03:15:12;5.00;;;4.50;;
61460;SDS011;47325;50.506;4.472;2023-06-10T03:20:57;4.90;;;4.40;;
61460;SDS011;47325;50.506;4.472;2023-06-10T03:26:42;5.10;;;4.60;;
61460;SDS011;47325;50.506;4.472;2023-06-10T03:32:27;5.00;;;4.50;;
61460;SDS011;47325;50.506;4.472;2023-06-10T03:38:12;5.00;;;4.50;;
61460;SDS011;47325;50.506;4.472;2023-06-10T03:43:57;4.50;;;4.10;;
61460;SDS011;47325;50.506;4.472;2023-06-10T03:49:42;4.50;;;4.10;;
61460;SDS011;47325;50.506;4.472;2023-06-10T03:55:26;5.50;;;4.60;;
61460;SDS011;47325;50.506;4.472;2023-06-10T04:01:11;4.90;;;4.40;;
61460;SDS011;47325;50.506;4.472;2023-06-10T04:06:56;5.00;;;4.50;;
61460;SDS011;47325;50.506;4.472;2023-06-10T04:12:41;5.10;;;4.40;;
61460;SDS011;47325;50.506;4.472;2023-06-10T04:18:26;5.10;;;4.60;;
61460;SDS011;47325;50.506;4.472;2023-06-10T04:24:11;5.10;;;4.60;;
61460;SDS011;47325;50.506;4.472;2023-06-10T04:29:56;7.50;;;6.80;;
61460;SDS011;47325;50.506;4.472;2023-06-10T04:35:41;8.40;;;7.40;;
61460;SDS011;47325;50.506;4.472;2023-06-10T04:41:26;9.30;;;7.40;;
61460;SDS011;47325;50.506;4.472;2023-06-10T04:47:11;7.90;;;7.10;;
61460;SDS011;47325;50.506;4.472;2023-06-10T04:52:57;8.40;;;6.90;;
61460;SDS011;47325;50.506;4.472;2023-06-10T04:58:42;11.00;;;7.60;;
61460;SDS011;47325;50.506;4.472;2023-06-10T05:04:27;8.70;;;7.40;;
61460;SDS011;47325;50.506;4.472;2023-06-10T05:10:12;10.00;;;6.80;;
61460;SDS011;47325;50.506;4.472;2023-06-10T05:15:57;9.90;;;7.50;;
61460;SDS011;47325;50.506;4.472;2023-06-10T05:21:42;10.20;;;7.50;;
61460;SDS011;47325;50.506;4.472;2023-06-10T05:27:27;8.30;;;7.30;;
61460;SDS011;47325;50.506;4.472;2023-06-10T05:33:12;9.20;;;7.30;;
61460;SDS011;47325;50.506;4.472;2023-06-10T05:38:57;10.00;;;7.10;;
61460;SDS011;47325;50.506;4.472;2023-06-10T05:44:42;9.80;;;7.40;;
61460;SDS011;47325;50.506;4.472;2023-06-10T05:50:27;8.80;;;7.10;;
61460;SDS011;47325;50.506;4.472;2023-06-10T05:56:12;9.70;;;7.70;;
61460;SDS011;47325;50.506;4.472;2023-06-10T06:01:57;8.10;;;7.20;;
61460;SDS011;47325;50.506;4.472;2023-06-10T06:07:43;10.30;;;7.20;;
61460;SDS011;47325;50.506;4.472;2023-06-10T06:13:28;8.30;;;7.00;;
61460;SDS011;47325;50.506;4.472;2023-06-10T06:19:13;8.40;;;7.00;;
61460;SDS011;47325;50.506;4.472;2023-06-10T06:24:58;8.80;;;6.80;;
61460;SDS011;47325;50.506;4.472;2023-06-10T06:30:44;8.60;;;6.90;;
61460;SDS011;47325;50.506;4.472;2023-06-10T06:36:29;7.90;;;6.50;;
61460;SDS011;47325;50.506;4.472;2023-06-10T06:42:14;7.10;;;6.40;;
61460;SDS011;47325;50.506;4.472;2023-06-10T06:47:59;7.00;;;6.30;;
61460;SDS011;47325;50.506;4.472;2023-06-10T06:53:44;7.40;;;5.90;;
61460;SDS011;47325;50.506;4.472;2023-06-10T06:59:29;6.80;;;5.60;;
61460;SDS011;47325;50.506;4.472;2023-06-10T07:05:14;7.40;;;6.00;;
61460;SDS011;47325;50.506;4.472;2023-06-10T07:11:00;7.70;;;5.80;;
61460;SDS011;47325;50.506;4.472;2023-06-10T07:16:45;6.00;;;5.40;;
61460;SDS011;47325;50.506;4.472;2023-06-10T07:22:30;7.40;;;5.60;;
61460;SDS011;47325;50.506;4.472;2023-06-10T07:28:15;7.20;;;5.30;;
61460;SDS011;47325;50.506;4.472;2023-06-10T07:34:00;6.50;;;5.10;;
61460;SDS011;47325;50.506;4.472;2023-06-10T07:39:45;7.30;;;4.70;;
61460;SDS011;47325;50.506;4.472;2023-06-10T07:45:30;7.10;;;5.10;;
61460;SDS011;47325;50.506;4.472;2023-06-10T07:51:15;6.50;;;5.00;;
61460;SDS011;47325;50.506;4.472;2023-06-10T07:57:01;5.70;;;5.10;;
61460;SDS011;47325;50.506;4.472;2023-06-10T08:02:46;6.10;;;4.70;;
61460;SDS011;47325;50.506;4.472;2023-06-10T08:08:32;6.80;;;4.80;;
61460;SDS011;47325;50.506;4.472;2023-06-10T08:14:16;5.20;;;4.70;;
61460;SDS011;47325;50.506;4.472;2023-06-10T08:20:01;7.30;;;4.80;;
61460;SDS011;47325;50.506;4.472;2023-06-10T08:25:47;8.10;;;4.70;;
61460;SDS011;47325;50.506;4.472;2023-06-10T08:31:32;7.10;;;4.50;;
61460;SDS011;47325;50.506;4.472;2023-06-10T08:37:17;7.20;;;4.60;;
61460;SDS011;47325;50.506;4.472;2023-06-10T08:43:03;5.40;;;4.50;;
61460;SDS011;47325;50.506;4.472;2023-06-10T08:48:51;6.50;;;4.50;;
61460;SDS011;47325;50.506;4.472;2023-06-10T08:54:36;5.70;;;4.60;;
61460;SDS011;47325;50.506;4.472;2023-06-10T09:00:23;5.40;;;4.40;;
61460;SDS011;47325;50.506;4.472;2023-06-10T09:06:09;6.40;;;4.00;;
61460;SDS011;47325;50.506;4.472;2023-06-10T09:11:54;5.80;;;4.40;;
61460;SDS011;47325;50.506;4.472;2023-06-10T09:17:39;5.10;;;4.60;;
61460;SDS011;47325;50.506;4.472;2023-06-10T09:23:24;7.60;;;4.70;;
61460;SDS011;47325;50.506;4.472;2023-06-10T09:29:11;9.10;;;4.30;;
61460;SDS011;47325;50.506;4.472;2023-06-10T09:34:56;5.90;;;4.40;;
61460;SDS011;47325;50.506;4.472;2023-06-10T09:40:44;5.70;;;4.30;;
61460;SDS011;47325;50.506;4.472;2023-06-10T09:46:34;5.50;;;4.10;;
61460;SDS011;47325;50.506;4.472;2023-06-10T09:52:20;4.60;;;4.10;;
61460;SDS011;47325;50.506;4.472;2023-06-10T09:58:05;4.90;;;3.90;;
61460;SDS011;47325;50.506;4.472;2023-06-10T10:03:50;7.40;;;4.20;;
61460;SDS011;47325;50.506;4.472;2023-06-10T10:09:35;5.40;;;4.10;;
61460;SDS011;47325;50.506;4.472;2023-06-10T10:15:20;7.40;;;4.00;;
61460;SDS011;47325;50.506;4.472;2023-06-10T10:21:06;4.90;;;3.90;;
61460;SDS011;47325;50.506;4.472;2023-06-10T10:26:54;4.90;;;4.00;;
61460;SDS011;47325;50.506;4.472;2023-06-10T10:32:43;5.90;;;4.00;;
61460;SDS011;47325;50.506;4.472;2023-06-10T10:38:31;5.50;;;4.10;;
61460;SDS011;47325;50.506;4.472;2023-06-10T10:44:17;4.40;;;3.70;;
61460;SDS011;47325;50.506;4.472;2023-06-10T10:50:03;6.40;;;4.10;;
61460;SDS011;47325;50.506;4.472;2023-06-10T10:56:03;5.90;;;3.90;;
61460;SDS011;47325;50.506;4.472;2023-06-10T11:01:49;5.80;;;3.80;;
61460;SDS011;47325;50.506;4.472;2023-06-10T11:07:35;5.10;;;3.90;;
61460;SDS011;47325;50.506;4.472;2023-06-10T11:13:20;6.30;;;4.00;;
61460;SDS011;47325;50.506;4.472;2023-06-10T11:19:07;6.30;;;3.80;;
61460;SDS011;47325;50.506;4.472;2023-06-10T11:24:52;4.50;;;3.70;;
61460;SDS011;47325;50.506;4.472;2023-06-10T11:30:38;4.30;;;3.60;;
61460;SDS011;47325;50.506;4.472;2023-06-10T11:36:23;6.20;;;3.60;;
61460;SDS011;47325;50.506;4.472;2023-06-10T11:42:09;5.10;;;3.50;;
61460;SDS011;47325;50.506;4.472;2023-06-10T11:47:59;5.30;;;4.00;;
61460;SDS011;47325;50.506;4.472;2023-06-10T11:53:45;5.50;;;4.00;;
61460;SDS011;47325;50.506;4.472;2023-06-10T11:59:30;6.60;;;4.40;;
61460;SDS011;47325;50.506;4.472;2023-06-10T12:05:15;8.30;;;4.00;;
61460;SDS011;47325;50.506;4.472;2023-06-10T12:11:01;8.10;;;3.70;;
61460;SDS011;47325;50.506;4.472;2023-06-10T12:16:51;7.50;;;3.70;;
61460;SDS011;47325;50.506;4.472;2023-06-10T12:22:41;6.70;;;4.00;;
61460;SDS011;47325;50.506;4.472;2023-06-10T12:28:26;4.70;;;3.70;;
61460;SDS011;47325;50.506;4.472;2023-06-10T12:34:11;5.30;;;3.90;;
61460;SDS011;47325;50.506;4.472;2023-06-10T12:39:57;4.80;;;3.70;;
61460;SDS011;47325;50.506;4.472;2023-06-10T12:45:44;5.70;;;4.10;;
61460;SDS011;47325;50.506;4.472;2023-06-10T12:51:30;9.40;;;5.00;;
61460;SDS011;47325;50.506;4.472;2023-06-10T12:57:15;5.40;;;4.80;;
61460;SDS011;47325;50.506;4.472;2023-06-10T13:03:01;7.20;;;4.60;;
61460;SDS011;47325;50.506;4.472;2023-06-10T13:08:47;5.20;;;4.60;;
61460;SDS011;47325;50.506;4.472;2023-06-10T13:14:32;8.00;;;4.80;;
61460;SDS011;47325;50.506;4.472;2023-06-10T13:20:17;6.00;;;4.90;;
61460;SDS011;47325;50.506;4.472;2023-06-10T13:26:02;6.20;;;4.90;;
61460;SDS011;47325;50.506;4.472;2023-06-10T13:31:47;6.50;;;4.80;;
61460;SDS011;47325;50.506;4.472;2023-06-10T13:37:32;6.10;;;5.00;;
61460;SDS011;47325;50.506;4.472;2023-06-10T13:43:17;6.20;;;4.80;;
61460;SDS011;47325;50.506;4.472;2023-06-10T13:49:02;6.30;;;4.80;;
61460;SDS011;47325;50.506;4.472;2023-06-10T13:54:47;6.10;;;5.10;;
61460;SDS011;47325;50.506;4.472;2023-06-10T14:00:33;5.60;;;5.00;;
61460;SDS011;47325;50.506;4.472;2023-06-10T14:06:18;6.50;;;4.80;;
61460;SDS011;47325;50.506;4.472;2023-06-10T14:12:04;5.60;;;4.80;;
61460;SDS011;47325;50.506;4.472;2023-06-10T14:17:49;8.60;;;4.80;;
61460;SDS011;47325;50.506;4.472;2023-06-10T14:23:34;5.80;;;4.90;;
61460;SDS011;47325;50.506;4.472;2023-06-10T14:29:19;6.70;;;4.70;;
61460;SDS011;47325;50.506;4.472;2023-06-10T14:35:04;6.10;;;4.80;;
61460;SDS011;47325;50.506;4.472;2023-06-10T14:40:51;6.00;;;4.50;;
61460;SDS011;47325;50.506;4.472;2023-06-10T14:46:36;11.60;;;4.90;;
61460;SDS011;47325;50.506;4.472;2023-06-10T14:52:23;8.20;;;4.40;;
61460;SDS011;47325;50.506;4.472;2023-06-10T14:58:08;6.60;;;4.50;;
61460;SDS011;47325;50.506;4.472;2023-06-10T15:03:53;6.10;;;4.10;;
61460;SDS011;47325;50.506;4.472;2023-06-10T15:09:39;5.40;;;4.40;;
61460;SDS011;47325;50.506;4.472;2023-06-10T15:15:24;5.10;;;4.20;;
61460;SDS011;47325;50.506;4.472;2023-06-10T15:21:09;7.10;;;3.80;;
61460;SDS011;47325;50.506;4.472;2023-06-10T15:26:54;4.40;;;3.80;;
61460;SDS011;47325;50.506;4.472;2023-06-10T15:32:39;5.20;;;4.00;;
61460;SDS011;47325;50.506;4.472;2023-06-10T15:38:24;4.30;;;3.90;;
61460;SDS011;47325;50.506;4.472;2023-06-10T15:44:09;4.20;;;3.60;;
61460;SDS011;47325;50.506;4.472;2023-06-10T15:49:54;5.10;;;3.60;;
61460;SDS011;47325;50.506;4.472;2023-06-10T15:55:39;4.60;;;3.50;;
61460;SDS011;47325;50.506;4.472;2023-06-10T16:01:24;4.20;;;3.60;;
61460;SDS011;47325;50.506;4.472;2023-06-10T16:07:09;4.20;;;3.80;;
61460;SDS011;47325;50.506;4.472;2023-06-10T16:12:54;4.50;;;3.50;;
61460;SDS011;47325;50.506;4.472;2023-06-10T16:18:39;5.60;;;3.50;;
61460;SDS011;47325;50.506;4.472;2023-06-10T16:24:23;3.40;;;3.10;;
61460;SDS011;47325;50.506;4.472;2023-06-10T16:30:10;4.20;;;3.10;;
61460;SDS011;47325;50.506;4.472;2023-06-10T16:35:55;3.50;;;2.90;;
61460;SDS011;47325;50.506;4.472;2023-06-10T16:41:40;4.00;;;3.10;;
61460;SDS011;47325;50.506;4.472;2023-06-10T16:47:25;3.50;;;3.00;;
61460;SDS011;47325;50.506;4.472;2023-06-10T16:53:10;3.30;;;2.70;;
61460;SDS011;47325;50.506;4.472;2023-06-10T16:58:55;2.90;;;2.60;;
61460;SDS011;47325;50.506;4.472;2023-06-10T17:04:39;3.20;;;2.60;;
61460;SDS011;47325;50.506;4.472;2023-06-10T17:10:24;3.60;;;2.70;;
61460;SDS011;47325;50.506;4.472;2023-06-10T17:16:09;3.10;;;2.60;;
61460;SDS011;47325;50.506;4.472;2023-06-10T17:21:55;2.90;;;2.60;;
61460;SDS011;47325;50.506;4.472;2023-06-10T17:27:40;4.30;;;3.00;;
61460;SDS011;47325;50.506;4.472;2023-06-10T17:33:26;3.50;;;3.00;;
61460;SDS011;47325;50.506;4.472;2023-06-10T17:39:11;3.00;;;2.70;;
61460;SDS011;47325;50.506;4.472;2023-06-10T17:44:56;3.30;;;2.80;;
61460;SDS011;47325;50.506;4.472;2023-06-10T17:50:41;3.00;;;2.70;;
61460;SDS011;47325;50.506;4.472;2023-06-10T17:56:26;3.10;;;2.80;;
61460;SDS011;47325;50.506;4.472;2023-06-10T18:02:11;4.30;;;3.00;;
61460;SDS011;47325;50.506;4.472;2023-06-10T18:07:56;3.20;;;2.90;;
61460;SDS011;47325;50.506;4.472;2023-06-10T18:13:41;2.80;;;2.60;;
61460;SDS011;47325;50.506;4.472;2023-06-10T18:19:26;3.10;;;2.80;;
61460;SDS011;47325;50.506;4.472;2023-06-10T18:25:11;3.10;;;2.80;;
61460;SDS011;47325;50.506;4.472;2023-06-10T18:30:56;3.10;;;2.80;;
61460;SDS011;47325;50.506;4.472;2023-06-10T18:36:41;3.70;;;3.10;;
61460;SDS011;47325;50.506;4.472;2023-06-10T18:42:26;3.20;;;2.90;;
61460;SDS011;47325;50.506;4.472;2023-06-10T18:48:11;3.50;;;3.20;;
61460;SDS011;47325;50.506;4.472;2023-06-10T18:53:57;3.50;;;3.20;;
61460;SDS011;47325;50.506;4.472;2023-06-10T18:59:41;3.50;;;3.20;;
61460;SDS011;47325;50.506;4.472;2023-06-10T19:05:26;3.80;;;3.30;;
61460;SDS011;47325;50.506;4.472;2023-06-10T19:11:12;3.70;;;3.30;;
61460;SDS011;47325;50.506;4.472;2023-06-10T19:16:57;4.30;;;3.40;;
61460;SDS011;47325;50.506;4.472;2023-06-10T19:22:42;3.60;;;3.30;;
61460;SDS011;47325;50.506;4.472;2023-06-10T19:28:27;4.00;;;3.60;;
61460;SDS011;47325;50.506;4.472;2023-06-10T19:34:12;5.10;;;3.30;;
61460;SDS011;47325;50.506;4.472;2023-06-10T19:39:57;3.70;;;3.40;;
61460;SDS011;47325;50.506;4.472;2023-06-10T19:45:42;3.80;;;3.40;;
61460;SDS011;47325;50.506;4.472;2023-06-10T19:51:27;4.00;;;3.60;;
61460;SDS011;47325;50.506;4.472;2023-06-10T19:57:12;3.80;;;3.30;;
61460;SDS011;47325;50.506;4.472;2023-06-10T20:02:58;6.60;;;5.30;;
61460;SDS011;47325;50.506;4.472;2023-06-10T20:08:43;8.80;;;5.50;;
61460;SDS011;47325;50.506;4.472;2023-06-10T20:14:28;6.50;;;5.40;;
61460;SDS011;47325;50.506;4.472;2023-06-10T20:20:13;8.90;;;5.90;;
61460;SDS011;47325;50.506;4.472;2023-06-10T20:25:59;7.90;;;5.70;;
61460;SDS011;47325;50.506;4.472;2023-06-10T20:31:51;7.10;;;5.80;;
61460;SDS011;47325;50.506;4.472;2023-06-10T20:37:37;7.20;;;6.00;;
61460;SDS011;47325;50.506;4.472;2023-06-10T20:43:21;7.10;;;6.40;;
61460;SDS011;47325;50.506;4.472;2023-06-10T20:49:06;8.40;;;6.10;;
61460;SDS011;47325;50.506;4.472;2023-06-10T20:54:56;8.70;;;6.40;;
61460;SDS011;47325;50.506;4.472;2023-06-10T21:00:42;9.50;;;6.80;;
61460;SDS011;47325;50.506;4.472;2023-06-10T21:06:27;8.40;;;6.30;;
61460;SDS011;47325;50.506;4.472;2023-06-10T21:12:12;9.20;;;6.90;;
61460;SDS011;47325;50.506;4.472;2023-06-10T21:17:58;10.30;;;6.50;;
61460;SDS011;47325;50.506;4.472;2023-06-10T21:23:43;8.80;;;6.50;;
61460;SDS011;47325;50.506;4.472;2023-06-10T21:29:29;7.70;;;6.30;;
61460;SDS011;47325;50.506;4.472;2023-06-10T21:35:15;10.80;;;7.00;;
61460;SDS011;47325;50.506;4.472;2023-06-10T21:41:01;8.40;;;6.90;;
61460;SDS011;47325;50.506;4.472;2023-06-10T21:46:46;9.40;;;6.80;;
61460;SDS011;47325;50.506;4.472;2023-06-10T21:52:31;11.60;;;6.80;;
61460;SDS011;47325;50.506;4.472;2023-06-10T21:58:16;7.80;;;6.60;;
61460;SDS011;47325;50.506;4.472;2023-06-10T22:04:01;9.40;;;6.70;;
61460;SDS011;47325;50.506;4.472;2023-06-10T22:09:47;7.30;;;6.60;;
61460;SDS011;47325;50.506;4.472;2023-06-10T22:15:33;9.20;;;6.90;;
61460;SDS011;47325;50.506;4.472;2023-06-10T22:21:17;9.50;;;6.70;;
61460;SDS011;47325;50.506;4.472;2023-06-10T22:27:03;8.00;;;7.20;;
61460;SDS011;47325;50.506;4.472;2023-06-10T22:32:47;10.20;;;7.00;;
61460;SDS011;47325;50.506;4.472;2023-06-10T22:38:32;8.20;;;6.80;;
61460;SDS011;47325;50.506;4.472;2023-06-10T22:44:17;9.00;;;6.90;;
61460;SDS011;47325;50.506;4.472;2023-06-10T22:50:03;9.10;;;7.00;;
61460;SDS011;47325;50.506;4.472;2023-06-10T22:55:47;10.40;;;7.00;;
61460;SDS011;47325;50.506;4.472;2023-06-10T23:01:32;10.10;;;7.30;;
61460;SDS011;47325;50.506;4.472;2023-06-10T23:07:18;9.70;;;7.70;;
61460;SDS011;47325;50.506;4.472;2023-06-10T23:13:03;9.70;;;7.70;;
61460;SDS011;47325;50.506;4.472;2023-06-10T23:18:47;9.10;;;7.30;;
61460;SDS011;47325;50.506;4.472;2023-06-10T23:24:32;8.60;;;7.70;;
61460;SDS011;47325;50.506;4.472;2023-06-10T23:30:18;9.20;;;7.40;;
61460;SDS011;47325;50.506;4.472;2023-06-10T23:36:03;8.50;;;7.60;;
61460;SDS011;47325;50.506;4.472;2023-06-10T23:41:48;9.20;;;7.90;;
61460;SDS011;47325;50.506;4.472;2023-06-10T23:47:33;8.80;;;7.90;;
61460;SDS011;47325;50.506;4.472;2023-06-10T23:53:18;9.40;;;8.00;;
61460;SDS011;47325;50.506;4.472;2023-06-10T23:59:03;11.60;;;8.20;;
